SBI5305 UNNT-UNKL
Flight info
| Callsign | SBI5305 |
|---|---|
| Flight time | N/A |
| Altitude | 35000 |
| Route | OGATI1J OGATI A308 RISPA A366 KESED A309 ROTLI A300 RANET RANET2R |
| Aircraft | B738/M-SDE2E3FGHIRWXY/LB1 |
Departure
| Time | 2026-05-01 14:49 |
|---|---|
| Airport | Novosibirsk Tolmachevo Airport (UNNT) |
Arrival
| Time | N/A |
|---|---|
| Airport | Krasnoyarsk International Airport (UNKL) |
| Time | Latitude | Longitude | Altitude | Speed | Heading |
|---|---|---|---|---|---|
| 2026-05-01 13:56 | 55.00959 | 82.66474 | 372 ft | 0 kts | 171° |
| 2026-05-01 14:30 | 55.00983 | 82.66467 | 372 ft | 3 kts | 171° |
| 2026-05-01 14:30 | 55.01002 | 82.66461 | 372 ft | 3 kts | 161° |
| 2026-05-01 14:30 | 55.01019 | 82.66444 | 372 ft | 3 kts | 129° |
| 2026-05-01 14:31 | 55.01048 | 82.66405 | 372 ft | 3 kts | 174° |
| 2026-05-01 14:31 | 55.01067 | 82.66400 | 372 ft | 3 kts | 169° |
| 2026-05-01 14:31 | 55.01073 | 82.66398 | 372 ft | 0 kts | 169° |
| 2026-05-01 14:39 | 55.01064 | 82.66401 | 372 ft | 4 kts | 169° |
| 2026-05-01 14:40 | 55.01024 | 82.66386 | 372 ft | 7 kts | 233° |
| 2026-05-01 14:40 | 55.01002 | 82.66289 | 372 ft | 10 kts | 250° |
| 2026-05-01 14:40 | 55.00977 | 82.66165 | 372 ft | 12 kts | 248° |
| 2026-05-01 14:40 | 55.00951 | 82.66022 | 372 ft | 13 kts | 260° |
| 2026-05-01 14:41 | 55.00935 | 82.65855 | 372 ft | 15 kts | 261° |
| 2026-05-01 14:41 | 55.00918 | 82.65664 | 372 ft | 17 kts | 260° |
| 2026-05-01 14:41 | 55.00899 | 82.65453 | 372 ft | 18 kts | 261° |
| 2026-05-01 14:41 | 55.00885 | 82.65244 | 372 ft | 16 kts | 268° |
| 2026-05-01 14:42 | 55.00872 | 82.65058 | 372 ft | 15 kts | 261° |
| 2026-05-01 14:42 | 55.00888 | 82.64880 | 372 ft | 15 kts | 282° |
| 2026-05-01 14:42 | 55.00910 | 82.64711 | 372 ft | 14 kts | 283° |
| 2026-05-01 14:42 | 55.00931 | 82.64549 | 372 ft | 13 kts | 283° |
| 2026-05-01 14:43 | 55.00950 | 82.64395 | 372 ft | 13 kts | 282° |
| 2026-05-01 14:43 | 55.00970 | 82.64244 | 372 ft | 13 kts | 283° |
| 2026-05-01 14:43 | 55.00989 | 82.64098 | 372 ft | 12 kts | 282° |
| 2026-05-01 14:43 | 55.01012 | 82.64011 | 373 ft | 4 kts | 340° |
| 2026-05-01 14:44 | 55.01024 | 82.64008 | 373 ft | 0 kts | 352° |
| 2026-05-01 14:47 | 55.01025 | 82.64007 | 373 ft | 1 kts | 352° |
| 2026-05-01 14:47 | 55.01043 | 82.64003 | 373 ft | 5 kts | 352° |
| 2026-05-01 14:48 | 55.01147 | 82.64030 | 374 ft | 11 kts | 64° |
| 2026-05-01 14:48 | 55.01155 | 82.64095 | 374 ft | 0 kts | 80° |
| 2026-05-01 14:48 | 55.01163 | 82.64180 | 374 ft | 24 kts | 81° |
| 2026-05-01 14:49 | 55.01372 | 82.66512 | 376 ft | 161 kts | 83° |
| 2026-05-01 14:49 | 55.01754 | 82.71021 | 1492 ft | 196 kts | 84° |
| 2026-05-01 14:50 | 55.02070 | 82.74267 | 2136 ft | 220 kts | 85° |
| 2026-05-01 14:50 | 55.02077 | 82.81869 | 3523 ft | 252 kts | 105° |
| 2026-05-01 14:51 | 55.01688 | 82.84872 | 4380 ft | 256 kts | 105° |
| 2026-05-01 14:51 | 55.00896 | 82.91041 | 5970 ft | 267 kts | 105° |
| 2026-05-01 14:52 | 55.00109 | 82.97512 | 7465 ft | 278 kts | 104° |
| 2026-05-01 14:52 | 54.99715 | 83.00841 | 8218 ft | 284 kts | 104° |
| 2026-05-01 14:52 | 54.98909 | 83.07712 | 9710 ft | 295 kts | 104° |
| 2026-05-01 14:53 | 54.98497 | 83.11249 | 10328 ft | 304 kts | 104° |
| 2026-05-01 14:53 | 54.98055 | 83.15005 | 10514 ft | 328 kts | 104° |
| 2026-05-01 14:53 | 54.97581 | 83.19031 | 10698 ft | 351 kts | 104° |
| 2026-05-01 14:53 | 54.97092 | 83.23226 | 11110 ft | 364 kts | 103° |
| 2026-05-01 14:54 | 54.96689 | 83.27615 | 11730 ft | 370 kts | 100° |
| 2026-05-01 14:54 | 54.96356 | 83.32081 | 12414 ft | 374 kts | 99° |
| 2026-05-01 14:54 | 54.96042 | 83.36609 | 13100 ft | 379 kts | 98° |
| 2026-05-01 14:54 | 54.95725 | 83.41191 | 13750 ft | 384 kts | 98° |
| 2026-05-01 14:55 | 54.95397 | 83.45829 | 14341 ft | 389 kts | 99° |
| 2026-05-01 14:55 | 54.95057 | 83.50517 | 14958 ft | 392 kts | 99° |
| 2026-05-01 14:55 | 54.94707 | 83.55246 | 15574 ft | 396 kts | 99° |
| 2026-05-01 14:55 | 54.94344 | 83.60083 | 16192 ft | 400 kts | 99° |
| 2026-05-01 14:56 | 54.93983 | 83.64841 | 16744 ft | 405 kts | 99° |
| 2026-05-01 14:56 | 54.93610 | 83.69715 | 17327 ft | 409 kts | 99° |
| 2026-05-01 14:56 | 54.93231 | 83.74634 | 17910 ft | 413 kts | 99° |
| 2026-05-01 14:56 | 54.92840 | 83.79672 | 18459 ft | 417 kts | 99° |
| 2026-05-01 14:57 | 54.92450 | 83.84684 | 18988 ft | 419 kts | 99° |
| 2026-05-01 14:57 | 54.91664 | 83.94702 | 20095 ft | 423 kts | 99° |
| 2026-05-01 14:57 | 54.91262 | 83.99785 | 20614 ft | 426 kts | 99° |
| 2026-05-01 14:58 | 54.90856 | 84.04888 | 21120 ft | 428 kts | 99° |
| 2026-05-01 14:58 | 54.90445 | 84.10025 | 21627 ft | 431 kts | 99° |
| 2026-05-01 14:58 | 54.90029 | 84.15199 | 22113 ft | 433 kts | 99° |
| 2026-05-01 14:58 | 54.89609 | 84.20394 | 22602 ft | 436 kts | 99° |
| 2026-05-01 14:59 | 54.89183 | 84.25626 | 23070 ft | 439 kts | 99° |
| 2026-05-01 14:59 | 54.88753 | 84.30886 | 23536 ft | 441 kts | 99° |
| 2026-05-01 14:59 | 54.88318 | 84.36173 | 23919 ft | 444 kts | 99° |
| 2026-05-01 14:59 | 54.87878 | 84.41499 | 24286 ft | 447 kts | 99° |
| 2026-05-01 15:00 | 54.86983 | 84.52243 | 24996 ft | 452 kts | 99° |
| 2026-05-01 15:00 | 54.86529 | 84.57663 | 25348 ft | 455 kts | 99° |
| 2026-05-01 15:00 | 54.86069 | 84.63110 | 25693 ft | 458 kts | 99° |
| 2026-05-01 15:01 | 54.85625 | 84.68592 | 26029 ft | 460 kts | 97° |
| 2026-05-01 15:01 | 54.85296 | 84.74144 | 26357 ft | 463 kts | 95° |
| 2026-05-01 15:01 | 54.85030 | 84.79726 | 26679 ft | 466 kts | 95° |
| 2026-05-01 15:01 | 54.84772 | 84.85342 | 27007 ft | 468 kts | 95° |
| 2026-05-01 15:02 | 54.84495 | 84.90983 | 27317 ft | 471 kts | 95° |
| 2026-05-01 15:02 | 54.84396 | 84.92898 | 27424 ft | 472 kts | 95° |
| 2026-05-01 15:02 | 54.83891 | 85.02366 | 27930 ft | 476 kts | 95° |
| 2026-05-01 15:02 | 54.83592 | 85.08088 | 28229 ft | 478 kts | 95° |
| 2026-05-01 15:03 | 54.83296 | 85.13842 | 28518 ft | 480 kts | 95° |
| 2026-05-01 15:03 | 54.83000 | 85.19632 | 28792 ft | 483 kts | 95° |
| 2026-05-01 15:03 | 54.82705 | 85.25440 | 29081 ft | 485 kts | 95° |
| 2026-05-01 15:03 | 54.82409 | 85.31274 | 29366 ft | 487 kts | 95° |
| 2026-05-01 15:04 | 54.82110 | 85.37141 | 29656 ft | 488 kts | 95° |
| 2026-05-01 15:04 | 54.81810 | 85.43015 | 30017 ft | 488 kts | 95° |
| 2026-05-01 15:04 | 54.81510 | 85.48866 | 30384 ft | 487 kts | 95° |
| 2026-05-01 15:04 | 54.81208 | 85.54696 | 30765 ft | 485 kts | 95° |
| 2026-05-01 15:05 | 54.80905 | 85.60500 | 31122 ft | 483 kts | 95° |
| 2026-05-01 15:05 | 54.80598 | 85.66295 | 31435 ft | 483 kts | 95° |
| 2026-05-01 15:05 | 54.80393 | 85.70136 | 31641 ft | 482 kts | 95° |
| 2026-05-01 15:05 | 54.79980 | 85.77782 | 32080 ft | 481 kts | 95° |
| 2026-05-01 15:06 | 54.79664 | 85.83541 | 32406 ft | 480 kts | 95° |
| 2026-05-01 15:06 | 54.79345 | 85.89289 | 32714 ft | 479 kts | 95° |
| 2026-05-01 15:06 | 54.79024 | 85.95029 | 33032 ft | 478 kts | 94° |
| 2026-05-01 15:06 | 54.78700 | 86.00755 | 33365 ft | 477 kts | 94° |
| 2026-05-01 15:07 | 54.78375 | 86.06459 | 33674 ft | 476 kts | 94° |
| 2026-05-01 15:07 | 54.78153 | 86.10305 | 33870 ft | 475 kts | 94° |
| 2026-05-01 15:07 | 54.77823 | 86.16004 | 34143 ft | 475 kts | 94° |
| 2026-05-01 15:07 | 54.77492 | 86.21678 | 34417 ft | 473 kts | 94° |
| 2026-05-01 15:08 | 54.77159 | 86.27337 | 34693 ft | 472 kts | 94° |
| 2026-05-01 15:08 | 54.76848 | 86.32981 | 34947 ft | 470 kts | 90° |
| 2026-05-01 15:08 | 54.77079 | 86.38589 | 35057 ft | 467 kts | 75° |
| 2026-05-01 15:08 | 54.78044 | 86.43925 | 35074 ft | 463 kts | 63° |
| 2026-05-01 15:09 | 54.79637 | 86.48717 | 35052 ft | 456 kts | 48° |
| 2026-05-01 15:09 | 54.83668 | 86.57149 | 35065 ft | 453 kts | 46° |
| 2026-05-01 15:10 | 54.87713 | 86.65514 | 35058 ft | 452 kts | 46° |
| 2026-05-01 15:10 | 54.93696 | 86.78155 | 35060 ft | 451 kts | 47° |
| 2026-05-01 15:11 | 54.99627 | 86.90862 | 35063 ft | 451 kts | 47° |
| 2026-05-01 15:12 | 55.03580 | 86.99371 | 35058 ft | 451 kts | 47° |
| 2026-05-01 15:12 | 55.09473 | 87.12108 | 35064 ft | 452 kts | 47° |
| 2026-05-01 15:14 | 55.19343 | 87.33586 | 35074 ft | 454 kts | 47° |
| 2026-05-01 15:14 | 55.25268 | 87.46569 | 35076 ft | 455 kts | 47° |
| 2026-05-01 15:15 | 55.33169 | 87.63992 | 35080 ft | 457 kts | 47° |
| 2026-05-01 15:16 | 55.41065 | 87.81531 | 35089 ft | 457 kts | 47° |
| 2026-05-01 15:18 | 55.50867 | 88.03478 | 35084 ft | 457 kts | 46° |
| 2026-05-01 15:19 | 55.58699 | 88.21154 | 35085 ft | 457 kts | 46° |
| 2026-05-01 15:19 | 55.64553 | 88.34452 | 35088 ft | 457 kts | 46° |
| 2026-05-01 15:20 | 55.70394 | 88.47793 | 35083 ft | 456 kts | 46° |
| 2026-05-01 15:21 | 55.74303 | 88.56763 | 35087 ft | 457 kts | 46° |
| 2026-05-01 15:21 | 55.78184 | 88.65699 | 35082 ft | 457 kts | 46° |
| 2026-05-01 15:22 | 55.83993 | 88.79141 | 35087 ft | 457 kts | 46° |
| 2026-05-01 15:22 | 55.87836 | 88.88071 | 35085 ft | 457 kts | 46° |
| 2026-05-01 15:23 | 55.91696 | 88.97073 | 35084 ft | 457 kts | 46° |
| 2026-05-01 15:23 | 55.95351 | 89.06389 | 35083 ft | 463 kts | 57° |
| 2026-05-01 15:24 | 55.97822 | 89.17110 | 35091 ft | 469 kts | 64° |
| 2026-05-01 15:24 | 56.00005 | 89.27894 | 35096 ft | 460 kts | 64° |
| 2026-05-01 15:25 | 56.02233 | 89.38721 | 35104 ft | 469 kts | 64° |
| 2026-05-01 15:25 | 56.04528 | 89.49704 | 35077 ft | 471 kts | 64° |
| 2026-05-01 15:26 | 56.06798 | 89.60586 | 35084 ft | 463 kts | 64° |
| 2026-05-01 15:26 | 56.09038 | 89.71363 | 35089 ft | 461 kts | 64° |
| 2026-05-01 15:27 | 56.11265 | 89.82127 | 35094 ft | 460 kts | 64° |
| 2026-05-01 15:28 | 56.14577 | 89.98259 | 35097 ft | 459 kts | 64° |
| 2026-05-01 15:28 | 56.15682 | 90.03620 | 34850 ft | 456 kts | 70° |
| 2026-05-01 15:28 | 56.16765 | 90.08929 | 34918 ft | 451 kts | 70° |
| 2026-05-01 15:31 | 56.27575 | 90.69495 | 32792 ft | 480 kts | 83° |
| 2026-05-01 15:31 | 56.27756 | 90.81391 | 31459 ft | 469 kts | 84° |
| 2026-05-01 15:32 | 56.28187 | 91.03780 | 28795 ft | 445 kts | 84° |
| 2026-05-01 15:33 | 56.28037 | 91.20200 | 26751 ft | 433 kts | 95° |
| 2026-05-01 15:34 | 56.26581 | 91.35983 | 24857 ft | 419 kts | 97° |